createdAt,value
2018-08-16T00:00:58.962Z,0
2018-08-16T00:01:59.203Z,0
2018-08-16T00:02:58.942Z,0
2018-08-16T00:03:59.498Z,0
2018-08-16T00:04:59.525Z,0
2018-08-16T00:05:58.966Z,0
2018-08-16T00:06:58.959Z,0
2018-08-16T00:07:58.715Z,0
2018-08-16T00:08:58.949Z,0
2018-08-16T00:09:58.974Z,0
2018-08-16T00:10:59.479Z,0
2018-08-16T00:11:59.208Z,0
2018-08-16T00:12:59.141Z,0
2018-08-16T00:13:58.994Z,0
2018-08-16T00:14:59.202Z,0
2018-08-16T00:15:58.963Z,0
2018-08-16T00:16:58.985Z,0
2018-08-16T00:17:59.485Z,0
2018-08-16T00:18:58.724Z,0
2018-08-16T00:19:58.980Z,0
2018-08-16T00:20:59.227Z,0
2018-08-16T00:21:58.981Z,0
2018-08-16T00:22:59.481Z,0
2018-08-16T00:23:58.727Z,0
2018-08-16T00:24:59.238Z,0
2018-08-16T00:25:59.119Z,0
2018-08-16T00:26:59.212Z,0
2018-08-16T00:27:59.227Z,0
2018-08-16T00:28:58.971Z,0
2018-08-16T00:29:59.235Z,0
2018-08-16T00:30:59.487Z,0
2018-08-16T00:31:59.238Z,0
2018-08-16T00:32:59.021Z,0
2018-08-16T00:33:59.235Z,0
2018-08-16T00:34:58.977Z,0
2018-08-16T00:35:59.238Z,0
2018-08-16T00:36:59.224Z,0
2018-08-16T00:37:59.484Z,0
2018-08-16T00:38:59.015Z,0
2018-08-16T00:39:59.235Z,0
2018-08-16T00:40:59.008Z,0
2018-08-16T00:41:58.986Z,0
2018-08-16T00:42:58.723Z,0
2018-08-16T00:43:59.237Z,0
2018-08-16T00:44:58.734Z,0
2018-08-16T00:45:59.496Z,0
2018-08-16T00:46:58.721Z,0
2018-08-16T00:47:58.992Z,0
2018-08-16T00:48:58.993Z,0
2018-08-16T00:49:59.006Z,0
2018-08-16T00:50:58.993Z,0
2018-08-16T00:51:59.260Z,0
2018-08-16T00:52:59.308Z,0
2018-08-16T00:53:58.992Z,0
2018-08-16T00:54:58.995Z,0
2018-08-16T00:55:59.508Z,0
2018-08-16T00:56:59.511Z,0
2018-08-16T00:57:59.253Z,0
2018-08-16T00:58:59.514Z,0
2018-08-16T00:59:59.256Z,0
2018-08-16T01:00:59.260Z,0
2018-08-16T01:01:58.986Z,0
2018-08-16T01:02:59.244Z,0
2018-08-16T01:03:59.408Z,0
2018-08-16T01:04:59.501Z,0
2018-08-16T01:05:59.250Z,0
2018-08-16T01:06:59.001Z,0
2018-08-16T01:07:59.058Z,0
2018-08-16T01:08:58.743Z,0
2018-08-16T01:09:59.008Z,0
2018-08-16T01:10:59.508Z,0
2018-08-16T01:11:59.008Z,0
2018-08-16T01:12:59.335Z,0
2018-08-16T01:13:59.270Z,0
2018-08-16T01:14:59.547Z,0
2018-08-16T01:15:59.594Z,0
2018-08-16T01:16:59.510Z,0
2018-08-16T01:17:59.266Z,0
2018-08-16T01:18:59.262Z,0
2018-08-16T01:19:59.017Z,0
2018-08-16T01:20:59.276Z,0
2018-08-16T01:21:59.255Z,0
2018-08-16T01:22:59.002Z,0
2018-08-16T01:23:59.011Z,0
2018-08-16T01:24:59.526Z,0
2018-08-16T01:25:59.534Z,0
2018-08-16T01:26:58.749Z,0
2018-08-16T01:27:58.746Z,0
2018-08-16T01:28:59.286Z,0
2018-08-16T01:29:59.565Z,0
2018-08-16T01:30:59.027Z,0
2018-08-16T01:31:59.267Z,0
2018-08-16T01:32:59.037Z,0
2018-08-16T01:34:00.099Z,0
2018-08-16T01:34:59.276Z,0
2018-08-16T01:35:58.760Z,0
2018-08-16T01:36:59.019Z,0
2018-08-16T01:37:59.015Z,0
2018-08-16T01:38:59.032Z,0
2018-08-16T01:39:59.265Z,0
2018-08-16T01:40:59.002Z,0
2018-08-16T01:41:59.529Z,0
2018-08-16T01:42:59.262Z,0
2018-08-16T01:43:59.281Z,0
2018-08-16T01:44:59.262Z,0
2018-08-16T01:45:59.262Z,0
2018-08-16T01:46:59.522Z,0
2018-08-16T01:47:59.047Z,0
2018-08-16T01:48:59.519Z,0
2018-08-16T01:49:58.748Z,0
2018-08-16T01:50:59.047Z,0
2018-08-16T01:51:59.009Z,0
2018-08-16T01:52:59.522Z,0
2018-08-16T01:53:58.759Z,0
2018-08-16T01:54:59.519Z,0
2018-08-16T01:55:59.277Z,0
2018-08-16T01:56:59.269Z,0
2018-08-16T01:57:59.286Z,0
2018-08-16T01:58:59.037Z,0
2018-08-16T01:59:59.292Z,0
2018-08-16T02:00:59.296Z,0
2018-08-16T02:01:59.550Z,0
2018-08-16T02:02:59.034Z,0
2018-08-16T02:03:59.542Z,0
2018-08-16T02:04:59.282Z,0
2018-08-16T02:05:59.553Z,0
2018-08-16T02:06:59.537Z,0
2018-08-16T02:07:59.570Z,0
2018-08-16T02:08:59.295Z,0
2018-08-16T02:09:59.027Z,0
2018-08-16T02:10:59.537Z,0
2018-08-16T02:11:59.042Z,0
2018-08-16T02:12:59.479Z,0
2018-08-16T02:13:59.022Z,0
2018-08-16T02:14:59.286Z,0
2018-08-16T02:15:58.512Z,0
2018-08-16T02:16:59.543Z,0
2018-08-16T02:17:59.017Z,0
2018-08-16T02:18:59.576Z,0
2018-08-16T02:19:59.024Z,0
2018-08-16T02:20:59.294Z,0
2018-08-16T02:21:59.289Z,0
2018-08-16T02:22:59.029Z,0
2018-08-16T02:23:59.556Z,0
2018-08-16T02:24:59.044Z,0
2018-08-16T02:25:59.557Z,0
2018-08-16T02:26:59.037Z,0
2018-08-16T02:27:59.585Z,0
2018-08-16T02:28:59.309Z,0
2018-08-16T02:29:59.324Z,0
2018-08-16T02:30:59.285Z,0
2018-08-16T02:31:59.066Z,0
2018-08-16T02:32:59.305Z,0
2018-08-16T02:33:59.599Z,0
2018-08-16T02:34:59.311Z,0
2018-08-16T02:35:59.558Z,0
2018-08-16T02:36:59.302Z,0
2018-08-16T02:37:59.595Z,0
2018-08-16T02:38:59.306Z,0
2018-08-16T02:39:59.048Z,0
2018-08-16T02:40:59.310Z,0
2018-08-16T02:41:59.304Z,0
2018-08-16T02:42:59.567Z,0
2018-08-16T02:43:59.301Z,0
2018-08-16T02:44:59.339Z,0
2018-08-16T02:45:59.301Z,0
2018-08-16T02:46:59.055Z,0
2018-08-16T02:47:58.789Z,0
2018-08-16T02:48:59.571Z,0
2018-08-16T02:49:59.058Z,0
2018-08-16T02:51:00.001Z,0
2018-08-16T02:51:59.550Z,0
2018-08-16T02:52:59.300Z,0
2018-08-16T02:53:59.311Z,0
2018-08-16T02:54:58.847Z,0
2018-08-16T02:55:58.793Z,0
2018-08-16T02:56:58.554Z,0
2018-08-16T02:57:59.065Z,0
2018-08-16T02:58:59.297Z,0
2018-08-16T02:59:59.305Z,0
2018-08-16T03:00:59.058Z,0
2018-08-16T03:01:59.570Z,0
2018-08-16T03:02:59.300Z,0
2018-08-16T03:03:59.064Z,0
2018-08-16T03:04:58.800Z,0
2018-08-16T03:05:59.646Z,0
2018-08-16T03:06:59.056Z,0
2018-08-16T03:07:59.328Z,0
2018-08-16T03:08:59.046Z,0
2018-08-16T03:09:58.823Z,0
2018-08-16T03:10:59.316Z,0
2018-08-16T03:11:59.301Z,0
2018-08-16T03:12:59.188Z,0
2018-08-16T03:13:59.064Z,0
2018-08-16T03:14:59.060Z,0
2018-08-16T03:15:58.823Z,0
2018-08-16T03:16:59.596Z,0
2018-08-16T03:17:59.313Z,0
2018-08-16T03:18:59.303Z,0
2018-08-16T03:19:59.059Z,0
2018-08-16T03:20:59.310Z,0
2018-08-16T03:21:59.059Z,0
2018-08-16T03:22:59.059Z,0
2018-08-16T03:23:59.076Z,0
2018-08-16T03:24:58.814Z,0
2018-08-16T03:25:59.336Z,0
2018-08-16T03:26:59.064Z,0
2018-08-16T03:27:58.803Z,0
2018-08-16T03:28:58.811Z,0
2018-08-16T03:29:59.566Z,0
2018-08-16T03:30:59.318Z,0
2018-08-16T03:31:59.384Z,0
2018-08-16T03:32:59.085Z,0
2018-08-16T03:33:59.575Z,0
2018-08-16T03:34:59.315Z,0
2018-08-16T03:35:59.636Z,0
2018-08-16T03:36:59.066Z,0
2018-08-16T03:37:59.634Z,0
2018-08-16T03:38:59.340Z,0
2018-08-16T03:39:59.061Z,0
2018-08-16T03:40:59.346Z,0
2018-08-16T03:41:59.067Z,0
2018-08-16T03:42:59.584Z,0
2018-08-16T03:43:59.066Z,0
2018-08-16T03:44:59.325Z,0
2018-08-16T03:45:59.071Z,0
2018-08-16T03:46:59.578Z,0
2018-08-16T03:47:59.330Z,0
2018-08-16T03:48:59.052Z,0
2018-08-16T03:49:59.316Z,0
2018-08-16T03:50:59.588Z,0
2018-08-16T03:51:59.330Z,0
2018-08-16T03:52:59.326Z,0
2018-08-16T03:53:59.322Z,0
2018-08-16T03:54:59.350Z,0
2018-08-16T03:55:59.079Z,0
2018-08-16T03:56:59.314Z,0
2018-08-16T03:57:59.587Z,0
2018-08-16T03:58:59.315Z,0
2018-08-16T03:59:59.056Z,0
2018-08-16T04:00:59.336Z,0
2018-08-16T04:01:59.304Z,0
2018-08-16T04:02:59.317Z,0
2018-08-16T04:03:59.623Z,0
2018-08-16T04:04:59.066Z,0
2018-08-16T04:05:59.069Z,0
2018-08-16T04:06:59.590Z,0
2018-08-16T04:07:59.325Z,0
2018-08-16T04:08:59.068Z,0
2018-08-16T04:09:58.799Z,0
2018-08-16T04:10:59.063Z,0
2018-08-16T04:11:59.593Z,5
2018-08-16T04:12:59.063Z,5
2018-08-16T04:13:58.814Z,5
2018-08-16T04:14:59.055Z,5
2018-08-16T04:15:59.058Z,5
2018-08-16T04:16:59.326Z,5
2018-08-16T04:17:59.069Z,5
2018-08-16T04:18:59.072Z,10
2018-08-16T04:19:58.554Z,10
2018-08-16T04:20:59.313Z,10
2018-08-16T04:21:59.310Z,10
2018-08-16T04:22:59.304Z,10
2018-08-16T04:23:59.607Z,15
2018-08-16T04:24:59.050Z,15
2018-08-16T04:25:59.351Z,15
2018-08-16T04:26:58.803Z,15
2018-08-16T04:27:59.059Z,20
2018-08-16T04:28:59.462Z,20
2018-08-16T04:29:59.328Z,20
2018-08-16T04:30:58.795Z,20
2018-08-16T04:31:59.065Z,25
2018-08-16T04:32:58.798Z,25
2018-08-16T04:33:58.803Z,25
2018-08-16T04:34:59.076Z,25
2018-08-16T04:35:59.327Z,30
2018-08-16T04:36:58.807Z,30
2018-08-16T04:37:59.311Z,30
2018-08-16T04:38:59.354Z,35
2018-08-16T04:39:58.822Z,35
2018-08-16T04:40:59.315Z,35
2018-08-16T04:41:59.600Z,35
2018-08-16T04:42:59.364Z,40
2018-08-16T04:43:59.322Z,40
2018-08-16T04:44:59.313Z,50
2018-08-16T04:45:59.308Z,55
2018-08-16T04:46:59.584Z,60
2018-08-16T04:47:59.046Z,65
2018-08-16T04:48:59.559Z,70
2018-08-16T04:49:58.787Z,70
2018-08-16T04:50:59.044Z,80
2018-08-16T04:51:59.296Z,80
2018-08-16T04:52:59.298Z,80
2018-08-16T04:53:59.053Z,85
2018-08-16T04:54:59.560Z,90
2018-08-16T04:55:59.339Z,95
2018-08-16T04:56:59.191Z,95
2018-08-16T04:57:59.308Z,100
2018-08-16T04:58:59.061Z,100
2018-08-16T04:59:59.071Z,100
2018-08-16T05:00:59.084Z,100
2018-08-16T05:01:59.328Z,110
2018-08-16T05:03:01.137Z,110
2018-08-16T05:03:59.335Z,115
2018-08-16T05:04:58.808Z,120
2018-08-16T05:05:58.822Z,120
2018-08-16T05:06:59.340Z,120
2018-08-16T05:07:59.067Z,125
2018-08-16T05:08:58.816Z,130
2018-08-16T05:09:59.077Z,135
2018-08-16T05:10:59.152Z,135
2018-08-16T05:11:59.342Z,140
2018-08-16T05:12:59.467Z,145
2018-08-16T05:13:58.832Z,150
2018-08-16T05:14:58.871Z,150
2018-08-16T05:15:58.834Z,155
2018-08-16T05:16:59.601Z,155
2018-08-16T05:17:58.824Z,160
2018-08-16T05:18:58.842Z,160
2018-08-16T05:19:59.097Z,165
2018-08-16T05:20:58.954Z,165
2018-08-16T05:21:58.871Z,170
2018-08-16T05:22:58.869Z,175
2018-08-16T05:24:00.315Z,175
2018-08-16T05:24:58.861Z,180
2018-08-16T05:25:59.380Z,180
2018-08-16T05:26:59.374Z,180
2018-08-16T05:27:59.364Z,185
2018-08-16T05:28:58.861Z,185
2018-08-16T05:29:59.127Z,180
2018-08-16T05:30:59.390Z,175
2018-08-16T05:31:59.165Z,195
2018-08-16T05:32:59.389Z,180
2018-08-16T05:33:59.952Z,185
2018-08-16T05:34:59.139Z,175
2018-08-16T05:35:59.663Z,160
2018-08-16T05:36:59.215Z,150
2018-08-16T05:37:59.662Z,150
2018-08-16T05:38:59.410Z,145
2018-08-16T05:39:59.658Z,140
2018-08-16T05:40:58.905Z,140
2018-08-16T05:41:59.157Z,135
2018-08-16T05:42:59.374Z,135
2018-08-16T05:43:58.930Z,135
2018-08-16T05:44:59.431Z,135
2018-08-16T05:45:59.176Z,135
2018-08-16T05:46:59.439Z,140
2018-08-16T05:47:58.651Z,140
2018-08-16T05:48:59.469Z,140
2018-08-16T05:49:59.182Z,140
2018-08-16T05:50:59.520Z,140
2018-08-16T05:51:59.718Z,140
2018-08-16T05:52:59.453Z,145
2018-08-16T05:53:59.444Z,260
2018-08-16T05:54:59.219Z,150
2018-08-16T05:55:59.060Z,145
2018-08-16T05:56:59.512Z,145
2018-08-16T05:57:59.721Z,150
2018-08-16T05:58:59.204Z,155
2018-08-16T05:59:59.477Z,160
2018-08-16T06:00:59.478Z,160
2018-08-16T06:01:59.474Z,170
2018-08-16T06:02:59.493Z,170
2018-08-16T06:03:58.978Z,175
2018-08-16T06:04:59.236Z,180
2018-08-16T06:05:59.486Z,195
2018-08-16T06:06:59.246Z,200
2018-08-16T06:07:59.222Z,215
2018-08-16T06:08:59.494Z,210
2018-08-16T06:09:59.221Z,285
2018-08-16T06:10:59.510Z,280
2018-08-16T06:11:59.231Z,285
2018-08-16T06:12:59.097Z,280
2018-08-16T06:13:59.269Z,280
2018-08-16T06:14:59.226Z,170
2018-08-16T06:15:58.989Z,170
2018-08-16T06:16:59.488Z,175
2018-08-16T06:17:59.538Z,180
2018-08-16T06:18:59.027Z,190
2018-08-16T06:19:58.999Z,195
2018-08-16T06:20:59.540Z,220
2018-08-16T06:21:59.516Z,235
2018-08-16T06:22:59.788Z,235
2018-08-16T06:23:59.663Z,250
2018-08-16T06:24:59.764Z,265
2018-08-16T06:25:59.287Z,275
2018-08-16T06:26:59.020Z,275
2018-08-16T06:27:59.789Z,280
2018-08-16T06:28:59.538Z,285
2018-08-16T06:29:59.280Z,285
2018-08-16T06:30:59.136Z,290
2018-08-16T06:31:59.285Z,290
2018-08-16T06:32:59.563Z,290
2018-08-16T06:33:59.050Z,290
2018-08-16T06:34:58.792Z,290
2018-08-16T06:35:59.065Z,320
2018-08-16T06:36:59.579Z,295
2018-08-16T06:37:59.591Z,295
2018-08-16T06:38:59.978Z,295
2018-08-16T06:39:59.114Z,295
2018-08-16T06:40:59.603Z,300
2018-08-16T06:41:59.596Z,300
2018-08-16T06:42:59.151Z,305
2018-08-16T06:43:59.368Z,310
2018-08-16T06:44:58.858Z,310
2018-08-16T06:45:59.377Z,315
2018-08-16T06:46:59.646Z,315
2018-08-16T06:47:59.893Z,320
2018-08-16T06:48:59.190Z,320
2018-08-16T06:49:59.394Z,325
2018-08-16T06:50:59.669Z,320
2018-08-16T06:51:59.434Z,325
2018-08-16T06:52:59.690Z,325
2018-08-16T06:53:59.430Z,340
2018-08-16T06:54:59.452Z,340
2018-08-16T06:55:59.703Z,340
2018-08-16T06:56:59.455Z,340
2018-08-16T06:57:59.178Z,340
2018-08-16T06:58:59.465Z,340
2018-08-16T06:59:59.480Z,345
2018-08-16T07:00:59.748Z,345
2018-08-16T07:01:59.478Z,345
2018-08-16T07:02:59.777Z,350
2018-08-16T07:03:59.750Z,350
2018-08-16T07:05:00.418Z,340
2018-08-16T07:06:00.014Z,335
2018-08-16T07:06:59.516Z,340
2018-08-16T07:07:59.808Z,340
2018-08-16T07:08:59.541Z,340
2018-08-16T07:09:59.266Z,340
2018-08-16T07:10:59.274Z,340
2018-08-16T07:11:59.732Z,345
2018-08-16T07:13:00.056Z,340
2018-08-16T07:13:59.566Z,335
2018-08-16T07:14:59.574Z,340
2018-08-16T07:15:59.578Z,340
2018-08-16T07:16:59.837Z,350
2018-08-16T07:17:59.831Z,345
2018-08-16T07:19:00.174Z,350
2018-08-16T07:20:00.122Z,340
2018-08-16T07:20:59.861Z,335
2018-08-16T07:21:59.867Z,340
2018-08-16T07:22:59.610Z,340
2018-08-16T07:23:59.881Z,335
2018-08-16T07:24:59.776Z,335
2018-08-16T07:25:59.635Z,330
2018-08-16T07:26:59.387Z,330
2018-08-16T07:27:59.419Z,330
2018-08-16T07:28:59.409Z,325
2018-08-16T07:30:00.501Z,320
2018-08-16T07:30:59.670Z,310
2018-08-16T07:31:59.428Z,300
2018-08-16T07:32:59.173Z,300
2018-08-16T07:33:59.704Z,295
2018-08-16T07:34:59.720Z,300
2018-08-16T07:35:59.980Z,295
2018-08-16T07:37:00.249Z,295
2018-08-16T07:37:59.516Z,285
2018-08-16T07:39:00.025Z,280
2018-08-16T07:39:59.764Z,280
2018-08-16T07:40:59.797Z,280
2018-08-16T07:41:59.775Z,285
2018-08-16T07:43:00.031Z,295
2018-08-16T07:43:59.528Z,300
2018-08-16T07:45:00.300Z,300
2018-08-16T07:46:01.374Z,280
2018-08-16T07:46:59.800Z,270
2018-08-16T07:48:00.077Z,270
2018-08-16T07:48:59.816Z,290
2018-08-16T07:49:59.840Z,300
2018-08-16T07:50:59.841Z,310
2018-08-16T07:52:00.562Z,315
2018-08-16T07:53:00.080Z,320
2018-08-16T07:54:00.073Z,325
2018-08-16T07:54:59.845Z,320
2018-08-16T07:55:59.843Z,315
2018-08-16T07:57:00.538Z,315
2018-08-16T07:58:00.116Z,320
2018-08-16T07:58:59.592Z,325
2018-08-16T08:00:00.384Z,325
2018-08-16T08:01:00.133Z,335
2018-08-16T08:01:59.867Z,330
2018-08-16T08:02:59.883Z,330
2018-08-16T08:04:00.181Z,330
2018-08-16T08:05:00.182Z,330
2018-08-16T08:05:59.910Z,330
2018-08-16T08:07:00.195Z,330
2018-08-16T08:08:00.180Z,330
2018-08-16T08:09:00.215Z,330
2018-08-16T08:10:00.731Z,330
2018-08-16T08:11:00.459Z,330
2018-08-16T08:11:59.957Z,330
2018-08-16T08:12:59.951Z,330
2018-08-16T08:13:59.961Z,330
2018-08-16T08:14:59.970Z,325
2018-08-16T08:16:00.256Z,330
2018-08-16T08:17:00.253Z,330
2018-08-16T08:18:00.501Z,325
2018-08-16T08:19:00.535Z,325
2018-08-16T08:20:00.270Z,325
2018-08-16T08:21:00.063Z,325
2018-08-16T08:22:00.029Z,320
2018-08-16T08:23:00.025Z,320
2018-08-16T08:24:00.298Z,320
2018-08-16T08:25:00.050Z,320
2018-08-16T08:26:00.325Z,320
2018-08-16T08:27:00.109Z,320
2018-08-16T08:28:00.088Z,320
2018-08-16T08:29:00.619Z,320
2018-08-16T08:29:59.858Z,315
2018-08-16T08:31:00.109Z,320
2018-08-16T08:32:00.114Z,315
2018-08-16T08:33:00.118Z,315
2018-08-16T08:34:00.149Z,315
2018-08-16T08:35:00.646Z,315
2018-08-16T08:36:00.422Z,310
2018-08-16T08:37:00.425Z,315
2018-08-16T08:38:00.420Z,310
2018-08-16T08:39:00.864Z,310
2018-08-16T08:40:00.718Z,305
2018-08-16T08:41:00.795Z,310
2018-08-16T08:42:00.705Z,305
2018-08-16T08:43:00.717Z,305
2018-08-16T08:44:00.210Z,305
2018-08-16T08:45:00.213Z,305
2018-08-16T08:46:00.216Z,305
2018-08-16T08:47:00.501Z,305
2018-08-16T08:48:00.493Z,305
2018-08-16T08:49:00.242Z,305
2018-08-16T08:50:00.514Z,305
2018-08-16T08:51:00.265Z,300
2018-08-16T08:52:00.557Z,295
2018-08-16T08:53:00.794Z,295
2018-08-16T08:54:00.277Z,290
2018-08-16T08:55:00.868Z,285
2018-08-16T08:56:00.559Z,285
2018-08-16T08:57:00.565Z,285
2018-08-16T08:58:00.574Z,285
2018-08-16T08:59:00.592Z,280
2018-08-16T09:00:00.093Z,285
2018-08-16T09:01:00.118Z,280
2018-08-16T09:02:00.091Z,280
2018-08-16T09:03:00.606Z,280
2018-08-16T09:04:00.344Z,280
2018-08-16T09:05:00.352Z,280
2018-08-16T09:06:00.871Z,280
2018-08-16T09:07:00.914Z,280
2018-08-16T09:08:00.633Z,280
2018-08-16T09:09:00.649Z,285
2018-08-16T09:10:00.663Z,280
2018-08-16T09:11:00.435Z,285
2018-08-16T09:12:00.665Z,290
2018-08-16T09:13:01.180Z,285
2018-08-16T09:14:00.935Z,285
2018-08-16T09:15:00.820Z,285
2018-08-16T09:16:00.686Z,290
2018-08-16T09:17:00.705Z,290
2018-08-16T09:18:00.976Z,285
2018-08-16T09:19:01.001Z,285
2018-08-16T09:20:01.262Z,285
2018-08-16T09:21:00.464Z,285
2018-08-16T09:22:00.746Z,285
2018-08-16T09:23:00.727Z,285
2018-08-16T09:24:00.888Z,285
2018-08-16T09:25:00.742Z,285
2018-08-16T09:26:01.002Z,285
2018-08-16T09:27:00.262Z,285
2018-08-16T09:28:00.499Z,285
2018-08-16T09:29:00.766Z,285
2018-08-16T09:30:00.509Z,285
2018-08-16T09:31:00.581Z,285
2018-08-16T09:32:01.032Z,285
2018-08-16T09:33:00.767Z,285
2018-08-16T09:34:00.796Z,285
2018-08-16T09:35:00.283Z,285
2018-08-16T09:36:00.838Z,285
2018-08-16T09:37:00.803Z,280
2018-08-16T09:38:01.070Z,280
2018-08-16T09:39:00.854Z,280
2018-08-16T09:40:00.759Z,280
2018-08-16T09:41:00.858Z,280
2018-08-16T09:42:00.818Z,280
2018-08-16T09:43:00.325Z,280
2018-08-16T09:44:00.825Z,280
2018-08-16T09:45:00.083Z,275
2018-08-16T09:46:00.840Z,275
2018-08-16T09:47:00.859Z,275
2018-08-16T09:48:00.598Z,275
2018-08-16T09:49:00.614Z,275
2018-08-16T09:50:00.619Z,270
2018-08-16T09:51:00.884Z,270
2018-08-16T09:52:01.133Z,270
2018-08-16T09:53:00.639Z,270
2018-08-16T09:54:01.143Z,265
2018-08-16T09:55:00.885Z,265
2018-08-16T09:56:00.392Z,265
2018-08-16T09:57:00.415Z,265
2018-08-16T09:58:01.193Z,265
2018-08-16T09:59:00.662Z,265
2018-08-16T10:00:01.181Z,265
2018-08-16T10:01:00.658Z,265
2018-08-16T10:02:00.205Z,260
2018-08-16T10:03:00.947Z,260
2018-08-16T10:04:00.949Z,260
2018-08-16T10:05:00.693Z,260
2018-08-16T10:06:00.693Z,260
2018-08-16T10:07:00.989Z,255
2018-08-16T10:08:00.959Z,255
2018-08-16T10:09:00.713Z,260
2018-08-16T10:10:00.984Z,255
2018-08-16T10:11:00.729Z,255
2018-08-16T10:12:00.732Z,255
2018-08-16T10:13:00.474Z,255
2018-08-16T10:14:00.733Z,250
2018-08-16T10:15:01.015Z,250
2018-08-16T10:16:01.008Z,250
2018-08-16T10:17:01.038Z,250
2018-08-16T10:18:01.017Z,250
2018-08-16T10:19:01.013Z,250
2018-08-16T10:20:01.038Z,250
2018-08-16T10:21:01.530Z,250
2018-08-16T10:22:00.808Z,245
2018-08-16T10:23:01.043Z,245
2018-08-16T10:24:00.807Z,245
2018-08-16T10:25:01.061Z,245
2018-08-16T10:26:00.293Z,245
2018-08-16T10:27:01.288Z,245
2018-08-16T10:28:00.849Z,245
2018-08-16T10:29:01.071Z,245
2018-08-16T10:30:01.065Z,240
2018-08-16T10:31:01.083Z,240
2018-08-16T10:32:01.079Z,240
2018-08-16T10:33:01.354Z,240
2018-08-16T10:34:00.829Z,240
2018-08-16T10:35:00.840Z,240
2018-08-16T10:36:01.119Z,240
2018-08-16T10:37:01.505Z,240
2018-08-16T10:38:00.859Z,240
2018-08-16T10:39:00.628Z,240
2018-08-16T10:40:01.127Z,240
2018-08-16T10:41:00.374Z,240
2018-08-16T10:42:00.639Z,240
2018-08-16T10:43:01.414Z,240
2018-08-16T10:44:01.151Z,240
2018-08-16T10:45:01.702Z,240
2018-08-16T10:46:01.156Z,240
2018-08-16T10:47:01.168Z,245
2018-08-16T10:48:01.174Z,240
2018-08-16T10:49:00.930Z,240
2018-08-16T10:50:01.453Z,240
2018-08-16T10:51:01.452Z,240
2018-08-16T10:52:01.452Z,235
2018-08-16T10:53:01.221Z,240
2018-08-16T10:54:01.531Z,240
2018-08-16T10:55:01.460Z,240
2018-08-16T10:56:01.231Z,240
2018-08-16T10:57:00.703Z,235
2018-08-16T10:58:01.489Z,235
2018-08-16T10:59:00.979Z,235
2018-08-16T11:00:01.283Z,235
2018-08-16T11:01:00.985Z,235
2018-08-16T11:02:01.511Z,235
2018-08-16T11:03:01.016Z,235
2018-08-16T11:04:01.269Z,235
2018-08-16T11:05:01.015Z,230
2018-08-16T11:06:01.333Z,230
2018-08-16T11:07:01.317Z,230
2018-08-16T11:08:01.339Z,230
2018-08-16T11:09:01.537Z,230
2018-08-16T11:10:01.030Z,225
2018-08-16T11:11:01.291Z,225
2018-08-16T11:12:01.033Z,225
2018-08-16T11:13:01.038Z,225
2018-08-16T11:14:01.328Z,225
2018-08-16T11:15:01.603Z,225
2018-08-16T11:16:00.794Z,225
2018-08-16T11:17:00.801Z,220
2018-08-16T11:18:00.825Z,220
2018-08-16T11:19:01.733Z,220
2018-08-16T11:20:00.825Z,220
2018-08-16T11:21:01.334Z,220
2018-08-16T11:22:01.744Z,220
2018-08-16T11:23:01.356Z,220
2018-08-16T11:24:01.103Z,220
2018-08-16T11:25:01.597Z,215
2018-08-16T11:26:01.320Z,220
2018-08-16T11:27:01.328Z,215
2018-08-16T11:28:01.339Z,215
2018-08-16T11:29:01.666Z,215
2018-08-16T11:30:01.146Z,215
2018-08-16T11:31:01.405Z,215
2018-08-16T11:32:01.166Z,210
2018-08-16T11:33:01.146Z,210
2018-08-16T11:34:01.424Z,210
2018-08-16T11:35:01.806Z,210
2018-08-16T11:36:01.166Z,210
2018-08-16T11:37:01.459Z,210
2018-08-16T11:38:02.286Z,210
2018-08-16T11:39:01.167Z,210
2018-08-16T11:40:01.183Z,210
2018-08-16T11:41:01.464Z,210
2018-08-16T11:42:00.935Z,210
2018-08-16T11:43:01.496Z,210
2018-08-16T11:44:01.505Z,210
2018-08-16T11:45:01.480Z,210
2018-08-16T11:46:01.754Z,210
2018-08-16T11:47:01.241Z,210
2018-08-16T11:48:01.518Z,210
2018-08-16T11:49:01.218Z,210
2018-08-16T11:50:01.489Z,210
2018-08-16T11:51:01.492Z,210
2018-08-16T11:52:01.509Z,210
2018-08-16T11:53:01.236Z,210
2018-08-16T11:54:01.530Z,210
2018-08-16T11:55:01.255Z,210
2018-08-16T11:56:00.753Z,210
2018-08-16T11:57:01.013Z,210
2018-08-16T11:58:01.285Z,210
2018-08-16T11:59:01.545Z,210
2018-08-16T12:00:01.297Z,210
2018-08-16T12:01:01.564Z,210
2018-08-16T12:02:01.425Z,210
2018-08-16T12:03:01.577Z,210
2018-08-16T12:04:01.581Z,210
2018-08-16T12:05:01.323Z,205
2018-08-16T12:06:01.318Z,205
2018-08-16T12:07:01.837Z,205
2018-08-16T12:08:01.857Z,205
2018-08-16T12:09:01.104Z,210
2018-08-16T12:10:01.368Z,205
2018-08-16T12:11:01.097Z,205
2018-08-16T12:12:01.363Z,205
2018-08-16T12:13:01.892Z,205
2018-08-16T12:14:01.124Z,205
2018-08-16T12:15:01.633Z,205
2018-08-16T12:16:01.120Z,205
2018-08-16T12:17:01.903Z,205
2018-08-16T12:18:01.905Z,205
2018-08-16T12:19:01.393Z,205
2018-08-16T12:20:01.414Z,205
2018-08-16T12:21:01.493Z,205
2018-08-16T12:22:01.666Z,205
2018-08-16T12:23:01.408Z,205
2018-08-16T12:24:01.975Z,210
2018-08-16T12:25:01.675Z,205
2018-08-16T12:26:01.940Z,205
2018-08-16T12:27:01.450Z,205
2018-08-16T12:28:01.447Z,210
2018-08-16T12:29:01.547Z,205
2018-08-16T12:30:01.703Z,205
2018-08-16T12:31:01.465Z,205
2018-08-16T12:32:01.205Z,205
2018-08-16T12:33:01.981Z,205
2018-08-16T12:34:01.475Z,210
2018-08-16T12:35:02.605Z,205
2018-08-16T12:36:01.754Z,205
2018-08-16T12:37:01.484Z,200
2018-08-16T12:38:01.862Z,200
2018-08-16T12:39:01.761Z,205
2018-08-16T12:40:00.991Z,200
2018-08-16T12:41:01.947Z,200
2018-08-16T12:42:00.990Z,200
2018-08-16T12:43:01.771Z,200
2018-08-16T12:44:02.050Z,200
2018-08-16T12:45:01.820Z,205
2018-08-16T12:46:01.810Z,200
2018-08-16T12:47:01.293Z,200
2018-08-16T12:48:02.190Z,200
2018-08-16T12:49:01.844Z,200
2018-08-16T12:50:01.835Z,200
2018-08-16T12:51:02.081Z,200
2018-08-16T12:52:01.633Z,195
2018-08-16T12:53:01.598Z,195
2018-08-16T12:54:01.901Z,195
2018-08-16T12:55:01.848Z,195
2018-08-16T12:56:01.849Z,195
2018-08-16T12:57:01.650Z,195
2018-08-16T12:58:02.155Z,195
2018-08-16T12:59:01.858Z,195
2018-08-16T13:00:01.622Z,190
2018-08-16T13:01:01.625Z,190
2018-08-16T13:02:02.548Z,190
2018-08-16T13:03:01.959Z,190
2018-08-16T13:04:02.154Z,190
2018-08-16T13:05:01.649Z,190
2018-08-16T13:06:02.169Z,190
2018-08-16T13:07:01.404Z,190
2018-08-16T13:08:01.751Z,190
2018-08-16T13:09:02.608Z,190
2018-08-16T13:10:01.942Z,190
2018-08-16T13:11:01.933Z,190
2018-08-16T13:12:01.686Z,190
2018-08-16T13:13:02.234Z,190
2018-08-16T13:14:01.950Z,185
2018-08-16T13:15:02.099Z,190
2018-08-16T13:16:02.237Z,185
2018-08-16T13:17:01.967Z,185
2018-08-16T13:18:02.238Z,185
2018-08-16T13:19:01.997Z,185
2018-08-16T13:20:01.998Z,185
2018-08-16T13:21:02.702Z,185
2018-08-16T13:22:01.738Z,185
2018-08-16T13:23:01.760Z,185
2018-08-16T13:24:02.044Z,185
2018-08-16T13:25:02.052Z,185
2018-08-16T13:26:02.508Z,185
2018-08-16T13:27:01.522Z,185
2018-08-16T13:28:02.043Z,185
2018-08-16T13:29:01.786Z,185
2018-08-16T13:30:01.914Z,185
2018-08-16T13:31:01.781Z,185
2018-08-16T13:32:01.557Z,185
2018-08-16T13:33:01.578Z,185
2018-08-16T13:34:01.540Z,185
2018-08-16T13:35:02.074Z,185
2018-08-16T13:36:02.316Z,185
2018-08-16T13:37:02.212Z,185
2018-08-16T13:38:01.616Z,185
2018-08-16T13:39:02.341Z,185
2018-08-16T13:40:01.838Z,185
2018-08-16T13:41:01.842Z,185
2018-08-16T13:42:01.597Z,185
2018-08-16T13:43:01.875Z,185
2018-08-16T13:44:01.871Z,185
2018-08-16T13:45:02.149Z,185
2018-08-16T13:46:02.142Z,185
2018-08-16T13:47:02.165Z,185
2018-08-16T13:48:02.406Z,185
2018-08-16T13:49:02.219Z,185
2018-08-16T13:50:02.458Z,190
2018-08-16T13:51:01.956Z,190
2018-08-16T13:52:01.968Z,190
2018-08-16T13:53:02.151Z,190
2018-08-16T13:54:01.929Z,190
2018-08-16T13:55:02.122Z,190
2018-08-16T13:56:01.940Z,190
2018-08-16T13:57:02.179Z,190
2018-08-16T13:58:02.187Z,190
2018-08-16T13:59:01.936Z,190
2018-08-16T14:00:01.430Z,190
2018-08-16T14:01:02.220Z,190
2018-08-16T14:02:02.169Z,190
2018-08-16T14:03:01.963Z,190
2018-08-16T14:04:02.233Z,190
2018-08-16T14:05:02.244Z,190
2018-08-16T14:06:01.725Z,190